Time;durP1;ratioP1;P1;durP2;ratioP2;P2;SDS_P1;SDS_P2;PMS_P1;PMS_P2;Temp;Humidity;BMP_temperature;BMP_pressure;BME280_temperature;BME280_humidity;BME280_pressure;Samples;Min_cycle;Max_cycle;Signal;HPM_P1;HPM_P2
2021/07/29 00:01:59;;;;;;;16.20;5.53;;;;;;;26.82;42.66;95032.56;4967191;28;20030;-71
2021/07/29 00:04:24;;;;;;;17.98;5.50;;;;;;;27.01;44.17;95068.06;4965856;28;20051;-71
2021/07/29 00:06:49;;;;;;;15.50;5.80;;;;;;;26.95;44.25;95075.66;4966637;28;20027;-71
2021/07/29 00:09:15;;;;;;;17.50;5.95;;;;;;;26.90;44.07;95074.53;4965062;28;20525;-71
2021/07/29 00:11:40;;;;;;;20.70;5.53;;;;;;;26.68;43.63;95046.09;4953480;28;20031;-71
2021/07/29 00:14:06;;;;;;;13.30;5.72;;;;;;;26.61;43.59;95046.75;4970008;28;20031;-71
2021/07/29 00:16:42;;;;;;;16.38;4.88;;;;;;;26.77;43.83;95071.81;4950117;29;20097;-71
2021/07/29 00:19:08;;;;;;;19.25;6.85;;;;;;;26.77;43.53;95077.28;4966046;28;20054;-71
2021/07/29 00:21:35;;;;;;;15.73;6.20;;;;;;;26.73;43.92;95064.44;4970499;28;20053;-71
2021/07/29 00:24:00;;;;;;;19.08;6.35;;;;;;;26.72;44.52;95060.22;4965447;28;20033;-71
2021/07/29 00:26:27;;;;;;;17.50;5.88;;;;;;;26.73;44.47;95065.16;4970845;28;20042;-71
2021/07/29 00:28:52;;;;;;;17.17;6.05;;;;;;;26.75;44.47;95056.41;4969334;28;20110;-71
2021/07/29 00:31:18;;;;;;;18.88;6.53;;;;;;;26.74;44.27;95049.47;4970530;28;20027;-71
2021/07/29 00:33:43;;;;;;;21.30;6.57;;;;;;;26.73;44.24;95043.25;4969832;28;20109;-71
2021/07/29 00:36:22;;;;;;;16.58;5.78;;;;;;;26.68;44.68;95046.09;4950086;28;20031;-71
2021/07/29 00:38:47;;;;;;;19.33;7.38;;;;;;;26.62;44.97;95040.75;4969070;28;20058;-71
2021/07/29 00:41:14;;;;;;;18.52;5.68;;;;;;;26.58;44.82;95043.06;4968052;28;20027;-71
2021/07/29 00:43:39;;;;;;;13.73;5.82;;;;;;;26.61;45.29;95035.81;4967765;28;20390;-71
2021/07/29 00:46:05;;;;;;;17.17;5.75;;;;;;;26.56;45.38;95028.41;4970273;28;20085;-71
2021/07/29 00:48:30;;;;;;;15.27;5.55;;;;;;;26.56;45.08;95033.91;4968004;28;20019;-71
2021/07/29 00:50:56;;;;;;;15.07;6.25;;;;;;;26.57;45.51;95046.34;4949254;28;20089;-71
2021/07/29 00:53:21;;;;;;;14.32;5.75;;;;;;;26.46;45.98;95035.63;4966628;28;20035;-71
2021/07/29 00:55:47;;;;;;;13.93;6.75;;;;;;;26.46;46.19;95030.13;4967050;28;20033;-71
2021/07/29 00:58:12;;;;;;;20.38;5.90;;;;;;;26.44;46.03;95027.16;4968995;28;20045;-71
2021/07/29 01:00:38;;;;;;;14.48;5.35;;;;;;;26.45;45.93;95023.19;4969536;28;20564;-71
2021/07/29 01:03:03;;;;;;;21.38;6.30;;;;;;;26.44;46.00;95024.44;4969758;28;20494;-71
2021/07/29 01:05:29;;;;;;;13.70;5.60;;;;;;;26.40;46.43;95037.72;4970249;28;20030;-71
2021/07/29 01:07:54;;;;;;;19.27;6.63;;;;;;;26.23;46.29;95007.16;4965455;28;20053;-71
2021/07/29 01:10:20;;;;;;;17.52;6.07;;;;;;;26.31;46.04;95030.66;4952466;28;20070;-71
2021/07/29 01:12:45;;;;;;;20.10;6.15;;;;;;;26.31;45.95;95024.47;4967501;28;20685;-71
2021/07/29 01:15:11;;;;;;;18.23;6.38;;;;;;;26.31;46.49;95029.94;4970053;28;20026;-71
2021/07/29 01:17:36;;;;;;;14.20;5.45;;;;;;;26.32;46.86;95042.34;4968951;28;20089;-71
2021/07/29 01:20:02;;;;;;;15.90;6.68;;;;;;;26.06;46.64;94987.59;4969406;28;20042;-71
2021/07/29 01:22:33;;;;;;;16.27;6.50;;;;;;;26.26;46.37;95005.38;4968975;28;20039;-71
2021/07/29 01:24:58;;;;;;;16.23;6.43;;;;;;;26.33;46.35;95010.97;4969549;28;20034;-70
2021/07/29 01:27:24;;;;;;;16.67;6.32;;;;;;;26.34;46.88;95006.97;4947753;28;20026;-70
2021/07/29 01:29:49;;;;;;;14.65;6.53;;;;;;;26.34;46.93;95006.97;4968442;28;20034;-70
2021/07/29 01:32:14;;;;;;;15.32;5.65;;;;;;;26.35;46.73;95000.22;4968119;28;20038;-70
2021/07/29 01:34:40;;;;;;;17.80;6.30;;;;;;;26.33;46.85;95000.03;4966129;28;20023;-70
2021/07/29 01:37:06;;;;;;;15.82;6.72;;;;;;;26.26;47.18;94984.19;4967855;28;20035;-70
2021/07/29 01:39:31;;;;;;;16.38;6.50;;;;;;;26.24;47.62;94986.72;4968822;28;20434;-70
2021/07/29 01:41:57;;;;;;;14.75;6.03;;;;;;;26.19;48.32;94990.31;4969197;28;20430;-70
2021/07/29 01:44:22;;;;;;;12.55;5.95;;;;;;;26.20;47.79;95005.47;4969807;28;20031;-70
2021/07/29 01:46:48;;;;;;;20.77;5.95;;;;;;;26.06;47.56;95008.75;4956023;28;20038;-70
2021/07/29 01:49:19;;;;;;;18.15;6.45;;;;;;;26.02;47.02;94998.13;4969075;28;20031;-71
2021/07/29 01:51:44;;;;;;;18.75;6.28;;;;;;;26.06;47.37;95004.00;4972277;28;20027;-70
2021/07/29 01:54:10;;;;;;;18.33;6.20;;;;;;;26.05;47.36;95010.78;4972012;28;20126;-70
2021/07/29 01:56:35;;;;;;;15.77;6.25;;;;;;;25.91;47.69;95003.81;4988323;28;20121;-70
2021/07/29 01:59:06;;;;;;;14.18;6.45;;;;;;;25.95;47.65;94987.81;4986786;28;20030;-70
2021/07/29 02:01:31;;;;;;;15.68;6.28;;;;;;;25.98;47.60;94981.28;4975843;28;20456;-70
2021/07/29 02:03:57;;;;;;;13.88;6.05;;;;;;;25.83;47.75;94970.13;4961505;28;20047;-70
2021/07/29 02:06:22;;;;;;;19.25;6.57;;;;;;;26.03;47.94;94999.59;4969662;28;20486;-70
2021/07/29 02:08:48;;;;;;;16.25;6.07;;;;;;;26.03;48.39;94993.41;4970689;28;20542;-70
2021/07/29 02:11:13;;;;;;;17.23;6.68;;;;;;;26.09;48.66;95011.16;4967052;28;20573;-71
2021/07/29 02:13:39;;;;;;;18.25;6.63;;;;;;;26.13;48.43;95008.88;4969015;28;20633;-71
2021/07/29 02:16:11;;;;;;;17.23;6.38;;;;;;;26.17;48.07;95009.25;4968828;28;20608;-71
2021/07/29 02:18:36;;;;;;;15.57;6.10;;;;;;;26.19;47.87;95006.75;4949951;28;20046;-71
2021/07/29 02:21:02;;;;;;;15.18;6.03;;;;;;;26.19;47.95;94995.81;4949123;29;20023;-71
2021/07/29 02:23:27;;;;;;;21.27;7.72;;;;;;;26.21;47.67;95004.22;4950104;29;20074;-71
2021/07/29 02:25:53;;;;;;;14.35;5.90;;;;;;;26.20;47.57;94996.53;4956085;28;20031;-71
2021/07/29 02:28:18;;;;;;;17.67;6.60;;;;;;;26.21;47.22;94998.75;4968410;28;20093;-71
2021/07/29 02:30:44;;;;;;;16.33;7.00;;;;;;;26.22;47.65;94994.75;4967322;28;20085;-70
2021/07/29 02:33:09;;;;;;;16.13;6.53;;;;;;;26.21;47.73;94993.25;4967432;28;20023;-71
2021/07/29 02:35:35;;;;;;;18.17;6.38;;;;;;;26.20;47.90;94991.78;4963697;28;20043;-71
2021/07/29 02:38:00;;;;;;;14.07;6.38;;;;;;;26.20;47.65;94997.25;4968089;28;20022;-71
2021/07/29 02:40:26;;;;;;;12.32;5.55;;;;;;;26.20;48.13;94997.25;4967256;28;20034;-71
2021/07/29 02:42:51;;;;;;;16.70;6.20;;;;;;;26.20;48.30;94994.53;4966930;28;20034;-70
2021/07/29 02:45:17;;;;;;;18.27;6.82;;;;;;;26.16;48.63;94980.44;4966326;28;20433;-70
2021/07/29 02:47:42;;;;;;;17.85;7.03;;;;;;;26.17;48.61;94992.84;4966665;28;20035;-71
2021/07/29 02:50:08;;;;;;;16.60;6.60;;;;;;;26.16;48.98;94991.38;4967648;28;20552;-71
2021/07/29 02:52:34;;;;;;;16.40;5.78;;;;;;;26.16;48.20;94988.66;4966395;28;20062;-71
2021/07/29 02:54:59;;;;;;;11.30;5.47;;;;;;;26.12;48.72;94990.97;4967831;28;20421;-70
2021/07/29 02:57:25;;;;;;;14.73;6.28;;;;;;;26.10;47.85;94988.03;4965319;28;20034;-71
2021/07/29 02:59:50;;;;;;;13.82;6.53;;;;;;;26.08;48.69;94985.06;4967645;28;20030;-71
2021/07/29 03:02:15;;;;;;;17.92;6.78;;;;;;;26.09;49.15;94986.53;4966865;28;20031;-71
2021/07/29 03:04:41;;;;;;;15.02;6.90;;;;;;;26.05;48.94;94980.66;4967632;28;20096;-71
2021/07/29 03:07:06;;;;;;;14.25;5.85;;;;;;;26.01;48.18;94985.72;4947150;28;20038;-70
2021/07/29 03:09:32;;;;;;;18.58;6.30;;;;;;;25.97;48.03;94979.81;4957574;28;20105;-70
2021/07/29 03:11:58;;;;;;;14.35;6.20;;;;;;;25.97;48.50;94996.22;4962340;28;20031;-70
2021/07/29 03:14:23;;;;;;;16.42;6.35;;;;;;;25.90;48.81;94991.41;4960647;28;20517;-70
2021/07/29 03:16:49;;;;;;;14.68;6.25;;;;;;;25.90;49.06;95002.34;4957456;28;20023;-70
2021/07/29 03:19:14;;;;;;;16.10;7.05;;;;;;;25.88;49.48;94999.38;4961422;28;20049;-70
2021/07/29 03:21:40;;;;;;;15.75;6.40;;;;;;;25.88;49.32;94998.66;4962822;28;20040;-70
2021/07/29 03:24:05;;;;;;;18.38;7.70;;;;;;;25.82;49.13;94996.00;4957650;28;20027;-71
2021/07/29 03:26:31;;;;;;;16.40;6.63;;;;;;;25.73;49.21;95003.91;4958101;28;20023;-71
2021/07/29 03:28:56;;;;;;;16.98;6.85;;;;;;;25.67;49.34;95010.75;4962302;28;20034;-71
2021/07/29 03:31:22;;;;;;;22.35;6.70;;;;;;;25.61;50.01;94996.41;4960149;28;20494;-71
2021/07/29 03:33:47;;;;;;;15.27;6.53;;;;;;;25.67;49.94;95005.28;4965447;28;20026;-71
2021/07/29 03:36:12;;;;;;;18.27;7.47;;;;;;;25.58;50.24;95013.84;4912030;28;20040;-71
2021/07/29 03:38:38;;;;;;;15.02;6.07;;;;;;;25.55;50.50;95014.91;4961922;28;20466;-71
2021/07/29 03:41:09;;;;;;;13.43;6.43;;;;;;;25.52;50.24;95015.94;4965363;28;20023;-71
2021/07/29 03:43:34;;;;;;;16.42;5.78;;;;;;;25.49;50.35;95017.00;4964435;28;20018;-71
2021/07/29 03:45:59;;;;;;;15.57;6.53;;;;;;;25.46;50.55;95020.78;4963069;28;20030;-71
2021/07/29 03:48:25;;;;;;;16.80;6.55;;;;;;;25.44;50.45;95021.28;4948686;28;20433;-71
2021/07/29 03:50:50;;;;;;;16.08;6.65;;;;;;;25.48;50.47;95020.97;4966956;28;20038;-71
2021/07/29 03:53:16;;;;;;;18.60;6.57;;;;;;;25.55;50.47;95020.38;4966814;28;20022;-72
2021/07/29 03:55:41;;;;;;;14.82;7.95;;;;;;;25.60;50.78;95022.25;4965763;28;20662;-72
2021/07/29 03:58:07;;;;;;;15.50;6.43;;;;;;;25.68;50.45;95023.13;4965513;28;20026;-72
2021/07/29 04:00:32;;;;;;;14.85;6.88;;;;;;;25.72;50.74;95024.31;4966363;28;20579;-71
2021/07/29 04:02:59;;;;;;;18.08;6.13;;;;;;;25.78;50.68;95027.69;4966281;28;20052;-71
2021/07/29 04:05:25;;;;;;;23.50;7.65;;;;;;;25.86;50.70;95034.03;4965005;28;20113;-73
2021/07/29 04:07:50;;;;;;;23.98;7.65;;;;;;;25.92;51.01;95027.19;4966856;28;20121;-71
2021/07/29 04:10:15;;;;;;;16.60;6.88;;;;;;;25.98;50.93;95025.06;4966493;28;20054;-70
2021/07/29 04:12:41;;;;;;;17.65;7.40;;;;;;;26.07;51.07;95032.13;4952310;28;20039;-70
2021/07/29 04:15:07;;;;;;;18.00;8.10;;;;;;;26.13;51.26;95025.28;4958642;28;20045;-71
2021/07/29 04:17:32;;;;;;;19.10;8.43;;;;;;;26.16;51.21;95024.22;4965342;28;20122;-71
2021/07/29 04:19:59;;;;;;;20.63;9.40;;;;;;;26.25;50.98;95026.53;4965845;28;20031;-71
2021/07/29 04:22:25;;;;;;;19.45;8.20;;;;;;;26.32;51.13;95034.13;4960441;28;20027;-72
2021/07/29 04:24:55;;;;;;;23.13;8.43;;;;;;;26.37;50.85;95022.34;4956523;28;20031;-74
2021/07/29 04:27:21;;;;;;;18.90;7.95;;;;;;;26.44;50.69;95016.22;4962536;28;20039;-73
2021/07/29 04:29:47;;;;;;;23.45;8.95;;;;;;;26.49;50.89;95018.13;4966074;28;20118;-74
2021/07/29 04:32:13;;;;;;;20.55;8.35;;;;;;;26.57;50.64;95018.94;4965866;28;20034;-74
2021/07/29 04:34:39;;;;;;;18.13;8.80;;;;;;;26.57;50.48;95005.97;4964207;28;20038;-74
2021/07/29 04:37:05;;;;;;;20.02;8.82;;;;;;;26.67;50.67;95028.19;4965460;28;20031;-75
2021/07/29 04:39:30;;;;;;;19.08;8.40;;;;;;;26.70;50.62;95024.41;4962894;28;20121;-74
2021/07/29 04:41:56;;;;;;;21.08;8.52;;;;;;;26.78;50.26;95023.94;4965278;28;20018;-73
2021/07/29 04:44:21;;;;;;;16.60;8.60;;;;;;;26.86;50.17;95022.03;4965901;28;20034;-73
2021/07/29 04:46:46;;;;;;;17.15;8.70;;;;;;;26.91;49.78;95025.94;4964598;28;20041;-71
2021/07/29 04:49:12;;;;;;;25.05;9.15;;;;;;;26.99;49.70;95019.25;4965684;28;20038;-71
2021/07/29 04:51:38;;;;;;;19.00;8.30;;;;;;;27.03;49.76;95019.66;4965608;28;20022;-71
2021/07/29 04:54:04;;;;;;;18.77;8.88;;;;;;;27.08;49.68;95016.06;4948357;28;20065;-72
2021/07/29 04:56:30;;;;;;;23.38;8.82;;;;;;;27.10;49.81;95024.50;4967505;28;20102;-71
2021/07/29 04:58:55;;;;;;;17.17;8.57;;;;;;;27.16;49.75;95014.16;4949748;28;20046;-71
2021/07/29 05:01:20;;;;;;;19.02;8.65;;;;;;;27.21;49.42;95021.50;4959248;28;20251;-72
2021/07/29 05:03:46;;;;;;;15.77;8.65;;;;;;;27.26;49.05;95023.34;4962175;28;20050;-69
2021/07/29 05:06:11;;;;;;;21.85;8.75;;;;;;;27.31;48.48;95028.00;4963182;28;20687;-69
2021/07/29 05:08:37;;;;;;;25.25;9.57;;;;;;;27.35;48.95;95031.13;4967719;28;20105;-68
2021/07/29 05:11:03;;;;;;;24.63;8.15;;;;;;;27.39;48.89;95026.06;4969024;28;20034;-69
2021/07/29 05:13:28;;;;;;;21.98;8.43;;;;;;;27.45;49.36;95021.91;4964678;28;20037;-69
2021/07/29 05:15:54;;;;;;;23.95;8.77;;;;;;;27.43;49.50;95016.22;4960163;28;20391;-72
2021/07/29 05:18:20;;;;;;;16.65;8.45;;;;;;;27.60;49.34;95035.03;4961121;28;20035;-68
2021/07/29 05:20:45;;;;;;;19.65;8.68;;;;;;;27.63;48.86;95028.47;4962207;28;20501;-70
2021/07/29 05:23:11;;;;;;;17.30;8.05;;;;;;;27.66;48.24;95030.16;4957251;28;20023;-71
2021/07/29 05:25:36;;;;;;;22.20;9.57;;;;;;;27.71;48.58;95040.25;4962051;28;20058;-73
2021/07/29 05:28:02;;;;;;;16.05;7.70;;;;;;;27.74;48.35;95029.69;4963005;28;20034;-72
2021/07/29 05:30:27;;;;;;;19.60;8.90;;;;;;;27.77;48.26;95039.56;4968794;28;20027;-74
2021/07/29 05:32:52;;;;;;;17.85;7.80;;;;;;;27.82;47.10;95041.44;4968538;28;20034;-74
2021/07/29 05:35:18;;;;;;;26.40;8.30;;;;;;;27.88;47.18;95044.06;4967177;28;20085;-71
2021/07/29 05:37:43;;;;;;;24.17;7.85;;;;;;;27.88;45.88;95039.28;4967370;28;20054;-71
2021/07/29 05:40:09;;;;;;;22.02;7.82;;;;;;;27.92;46.15;95049.91;4966559;28;20119;-71
2021/07/29 05:42:35;;;;;;;22.60;8.32;;;;;;;27.81;46.58;95023.47;4969083;28;20031;-70
2021/07/29 05:45:00;;;;;;;20.75;8.27;;;;;;;28.05;45.78;95042.31;4969387;28;20031;-72
2021/07/29 05:47:26;;;;;;;19.95;8.23;;;;;;;27.96;45.37;95044.81;4968732;28;20019;-72
2021/07/29 05:50:00;;;;;;;17.05;8.00;;;;;;;27.93;45.64;95052.13;4968922;28;20030;-78
2021/07/29 05:52:26;;;;;;;23.35;8.00;;;;;;;27.91;46.42;95049.19;4954443;28;20058;-70
2021/07/29 05:54:52;;;;;;;17.77;8.40;;;;;;;27.91;45.74;95049.19;4941809;28;20495;-71
2021/07/29 05:57:17;;;;;;;23.15;8.65;;;;;;;27.95;46.37;95055.09;4950898;28;20030;-70
2021/07/29 05:59:43;;;;;;;16.17;7.82;;;;;;;27.93;46.14;95057.63;4967604;28;20524;-69
2021/07/29 06:02:08;;;;;;;22.90;8.32;;;;;;;27.98;45.30;95054.00;4968612;28;20046;-71
2021/07/29 06:04:34;;;;;;;22.70;7.68;;;;;;;27.99;44.73;95060.22;4966218;28;20034;-71
2021/07/29 06:06:59;;;;;;;20.30;9.27;;;;;;;27.99;44.95;95060.94;4968737;28;20565;-71
2021/07/29 06:09:25;;;;;;;26.80;12.70;;;;;;;28.00;45.03;95062.44;4967543;28;20593;-70
2021/07/29 06:11:50;;;;;;;20.45;9.43;;;;;;;28.05;44.48;95058.81;4968776;28;20033;-71
2021/07/29 06:14:15;;;;;;;18.55;8.48;;;;;;;28.11;44.20;95062.16;4968730;28;20039;-70
2021/07/29 06:16:41;;;;;;;16.88;8.20;;;;;;;28.14;43.70;95061.09;4968407;28;20027;-70
2021/07/29 06:19:15;;;;;;;24.73;10.20;;;;;;;28.27;43.54;95063.75;4968939;28;20050;-70
2021/07/29 06:21:40;;;;;;;18.90;8.05;;;;;;;28.14;44.07;95050.09;4968529;28;20026;-72
2021/07/29 06:24:06;;;;;;;20.58;9.25;;;;;;;28.30;44.20;95062.66;4967779;28;20030;-72
2021/07/29 06:26:32;;;;;;;18.30;9.55;;;;;;;28.33;44.85;95073.28;4968890;28;20025;-72
2021/07/29 06:28:57;;;;;;;19.55;8.85;;;;;;;28.36;43.93;95076.97;4967615;28;20418;-72
2021/07/29 06:31:23;;;;;;;19.90;9.45;;;;;;;28.34;44.88;95074.03;4967888;28;20031;-70
2021/07/29 06:33:48;;;;;;;19.77;9.13;;;;;;;28.30;44.14;95062.66;4968637;28;20513;-70
2021/07/29 06:36:47;;;;;;;23.70;11.32;;;;;;;28.37;44.80;95062.72;4960803;28;20466;-69
2021/07/29 06:39:06;;;;;;;22.67;10.30;;;;;;;28.45;44.26;95051.75;4936399;28;20137;-69
2021/07/29 06:41:31;;;;;;;18.17;10.98;;;;;;;28.59;45.00;95064.09;4956195;28;20030;-70
2021/07/29 06:43:57;;;;;;;19.42;10.68;;;;;;;28.55;44.51;95044.47;4968733;28;20058;-69
2021/07/29 06:46:22;;;;;;;20.13;12.25;;;;;;;28.58;44.96;95059.88;4968379;28;20485;-70
2021/07/29 06:48:48;;;;;;;24.48;13.88;;;;;;;28.57;44.97;95052.91;4967841;28;20525;-69
2021/07/29 06:51:13;;;;;;;19.88;12.85;;;;;;;28.55;44.13;95049.97;4967156;28;20023;-69
2021/07/29 06:53:39;;;;;;;19.25;11.88;;;;;;;28.46;44.20;95042.97;4967526;28;20023;-69
2021/07/29 06:56:07;;;;;;;22.00;12.65;;;;;;;28.50;43.78;95046.09;4968063;28;20030;-68
2021/07/29 06:58:33;;;;;;;19.90;12.35;;;;;;;28.29;43.16;95012.47;4968068;28;20045;-69
2021/07/29 07:01:03;;;;;;;21.08;13.43;;;;;;;28.43;43.00;95035.06;4968165;28;20493;-69
2021/07/29 07:03:28;;;;;;;21.70;14.18;;;;;;;28.45;43.63;95035.28;4971354;28;20074;-69
2021/07/29 07:06:04;;;;;;;25.77;14.57;;;;;;;28.42;42.93;95036.34;4967986;28;20046;-69
2021/07/29 07:08:29;;;;;;;23.92;14.55;;;;;;;28.37;43.23;95031.72;4982524;28;20077;-70
2021/07/29 07:10:55;;;;;;;22.00;14.70;;;;;;;28.34;43.41;95019.84;4967700;28;20026;-70
2021/07/29 07:13:20;;;;;;;24.58;14.38;;;;;;;28.38;43.50;95020.19;4967112;28;20030;-69
2021/07/29 07:15:47;;;;;;;22.27;15.30;;;;;;;28.35;43.32;95024.03;4967941;28;20011;-70
2021/07/29 07:18:13;;;;;;;22.60;16.38;;;;;;;28.36;43.10;95022.03;4967215;28;20062;-69
2021/07/29 07:20:38;;;;;;;25.92;16.50;;;;;;;28.27;43.43;95026.00;4967209;28;20419;-69
2021/07/29 07:23:04;;;;;;;23.10;16.50;;;;;;;28.29;43.44;95033.72;4967189;28;20023;-69
2021/07/29 07:25:29;;;;;;;24.73;17.15;;;;;;;28.26;42.85;95040.28;4967161;28;20030;-69
2021/07/29 07:27:55;;;;;;;22.48;16.38;;;;;;;28.20;43.01;95031.47;4967273;28;20027;-69
2021/07/29 07:30:20;;;;;;;26.77;18.25;;;;;;;28.24;43.38;95038.09;4967370;28;20357;-70
2021/07/29 07:32:45;;;;;;;25.02;17.92;;;;;;;28.21;43.17;95038.44;4967197;28;20706;-69
2021/07/29 07:35:11;;;;;;;26.15;17.90;;;;;;;28.18;42.68;95033.28;4966138;28;20301;-69
2021/07/29 07:37:36;;;;;;;26.73;17.80;;;;;;;28.14;43.01;95028.13;4967027;28;20018;-69
2021/07/29 07:40:02;;;;;;;25.48;18.08;;;;;;;28.14;42.86;95038.38;4966883;28;20022;-69
2021/07/29 07:42:28;;;;;;;25.60;17.75;;;;;;;28.12;43.33;95036.19;4967342;28;20042;-69
2021/07/29 07:44:55;;;;;;;26.38;17.40;;;;;;;28.11;43.12;95040.19;4967231;28;20497;-69
2021/07/29 07:47:20;;;;;;;26.50;19.50;;;;;;;28.07;43.51;95030.81;4967507;28;20113;-70
2021/07/29 07:49:46;;;;;;;27.27;20.33;;;;;;;28.17;42.41;95029.78;4966929;28;20034;-69
2021/07/29 07:52:11;;;;;;;25.05;19.33;;;;;;;28.03;42.13;95027.69;4967228;28;20047;-70
2021/07/29 07:54:37;;;;;;;28.80;19.77;;;;;;;27.79;41.87;95034.28;4966529;28;20027;-69
2021/07/29 07:57:06;;;;;;;25.45;19.05;;;;;;;27.65;41.29;95031.41;4966950;28;20034;-69
2021/07/29 07:59:38;;;;;;;26.85;18.85;;;;;;;27.44;41.24;95030.66;4967996;28;20052;-68
2021/07/29 08:02:03;;;;;;;30.25;19.65;;;;;;;27.31;41.31;95030.75;4967709;28;20113;-68
2021/07/29 08:04:29;;;;;;;26.40;18.40;;;;;;;27.09;41.64;95014.78;4967452;28;20492;-69
2021/07/29 08:06:55;;;;;;;26.30;18.70;;;;;;;27.14;42.72;95022.16;4966653;28;20026;-69
2021/07/29 08:09:20;;;;;;;24.80;18.63;;;;;;;27.07;43.29;95022.81;4968171;28;20387;-69
2021/07/29 08:11:45;;;;;;;24.67;18.33;;;;;;;26.97;43.69;95013.56;4967099;28;20026;-69
2021/07/29 08:14:11;;;;;;;23.10;17.75;;;;;;;26.95;44.73;94994.19;4966424;28;20107;-68
2021/07/29 08:16:37;;;;;;;22.38;17.38;;;;;;;27.19;46.43;95018.56;4968045;28;20034;-69
2021/07/29 08:19:03;;;;;;;23.02;17.77;;;;;;;27.27;47.07;95019.34;4949623;28;20113;-69
2021/07/29 08:21:28;;;;;;;23.45;17.90;;;;;;;27.32;47.48;95015.75;4967929;28;20034;-69
2021/07/29 08:23:54;;;;;;;22.63;17.35;;;;;;;27.36;47.30;95013.41;4967506;28;20045;-69
2021/07/29 08:26:19;;;;;;;20.67;16.58;;;;;;;27.39;46.84;95004.09;4967740;28;20046;-69
2021/07/29 08:28:45;;;;;;;21.05;15.95;;;;;;;27.42;46.41;95009.25;4966576;28;20027;-69
2021/07/29 08:31:11;;;;;;;22.88;16.23;;;;;;;27.42;45.79;95005.78;4968612;28;20493;-69
2021/07/29 08:33:36;;;;;;;20.25;15.82;;;;;;;27.38;46.07;95014.34;4969868;28;20039;-69
2021/07/29 08:36:02;;;;;;;19.98;15.73;;;;;;;27.34;45.84;95013.22;4970062;28;20027;-69
2021/07/29 08:38:28;;;;;;;19.25;15.18;;;;;;;27.30;45.93;95001.84;4970524;28;20030;-70
2021/07/29 08:40:56;;;;;;;22.15;15.60;;;;;;;27.26;45.68;95001.41;4970630;28;20023;-69
2021/07/29 08:43:22;;;;;;;19.90;14.63;;;;;;;27.22;45.73;95006.53;4971306;28;20035;-69
2021/07/29 08:45:50;;;;;;;21.05;14.65;;;;;;;27.18;45.58;94995.13;4970821;28;20030;-69
2021/07/29 08:48:15;;;;;;;19.25;14.55;;;;;;;27.15;45.19;95007.19;4970684;28;20030;-69
2021/07/29 08:50:41;;;;;;;20.67;14.73;;;;;;;27.14;45.52;95000.22;4945549;28;20081;-69
2021/07/29 08:53:07;;;;;;;20.55;14.80;;;;;;;27.10;45.64;94994.34;4953298;28;20070;-69
2021/07/29 08:55:32;;;;;;;19.05;14.38;;;;;;;27.09;45.49;95003.84;4961589;28;20042;-69
2021/07/29 08:57:58;;;;;;;18.70;13.90;;;;;;;27.05;45.31;94992.44;4963077;28;20026;-69
2021/07/29 09:00:23;;;;;;;19.08;14.02;;;;;;;27.02;45.60;94992.78;4969868;28;20042;-69
2021/07/29 09:02:49;;;;;;;17.20;13.95;;;;;;;27.03;45.14;94994.28;4969053;28;20030;-69
2021/07/29 09:05:18;;;;;;;20.63;14.35;;;;;;;27.00;45.41;94992.59;4967000;28;20057;-70
2021/07/29 09:08:07;;;;;;;17.83;13.50;;;;;;;26.76;45.56;94960.72;4969569;28;20042;-69
2021/07/29 09:10:32;;;;;;;17.17;12.82;;;;;;;26.70;45.67;94944.94;4970570;28;20104;-69
2021/07/29 09:13:17;;;;;;;21.00;13.20;;;;;;;26.94;45.43;94983.75;4970936;28;20490;-70
2021/07/29 09:15:43;;;;;;;19.55;13.07;;;;;;;26.89;45.31;94979.88;4967531;28;20081;-69
2021/07/29 09:18:08;;;;;;;19.83;13.80;;;;;;;26.87;45.06;94976.16;4969533;28;20030;-69
2021/07/29 09:20:34;;;;;;;18.45;12.60;;;;;;;26.87;45.55;94976.88;4952630;28;20054;-69
2021/07/29 09:23:20;;;;;;;17.08;12.88;;;;;;;26.85;45.27;94971.22;4966355;28;20913;-69
2021/07/29 09:25:47;;;;;;;17.45;12.90;;;;;;;26.84;45.36;94971.75;4967771;28;20026;-69
2021/07/29 09:28:39;;;;;;;16.90;12.45;;;;;;;26.85;45.36;94971.22;4967661;28;20029;-69
2021/07/29 09:31:15;;;;;;;17.60;12.43;;;;;;;26.83;45.11;94965.53;4968785;28;20605;-69
2021/07/29 09:34:01;;;;;;;19.20;12.45;;;;;;;26.63;45.11;94940.13;4950807;28;20023;-69
2021/07/29 09:36:28;;;;;;;17.27;12.20;;;;;;;26.82;45.23;94972.28;4967620;28;20029;-69
2021/07/29 09:39:18;;;;;;;16.77;12.35;;;;;;;26.80;45.04;94966.59;4969375;28;20462;-69
2021/07/29 09:41:44;;;;;;;15.80;11.50;;;;;;;26.80;45.13;94965.84;4968243;28;20034;-69
2021/07/29 09:44:09;;;;;;;17.02;11.85;;;;;;;26.77;44.87;94962.19;4969738;28;20038;-69
2021/07/29 09:46:35;;;;;;;15.13;11.23;;;;;;;26.78;45.09;94968.41;4969963;28;20034;-69
2021/07/29 09:49:00;;;;;;;15.77;11.90;;;;;;;26.73;44.90;94952.81;4951044;28;20043;-69
2021/07/29 09:51:26;;;;;;;15.50;11.23;;;;;;;26.76;44.99;94963.44;4950680;28;20800;-69
2021/07/29 09:53:51;;;;;;;13.75;10.38;;;;;;;26.72;44.81;94959.56;4935783;28;20043;-69
2021/07/29 09:56:16;;;;;;;16.75;11.63;;;;;;;26.75;44.68;94958.50;4964338;28;20038;-69
2021/07/29 09:58:42;;;;;;;14.93;10.55;;;;;;;26.76;44.84;94959.25;4960389;28;20141;-70
2021/07/29 10:01:08;;;;;;;13.60;10.82;;;;;;;26.76;44.58;94962.00;4968568;28;20038;-69
2021/07/29 10:03:37;;;;;;;14.02;10.68;;;;;;;26.74;44.57;94957.06;4968423;28;20043;-68
2021/07/29 10:06:06;;;;;;;15.20;10.63;;;;;;;26.75;44.62;94958.50;4969353;28;20023;-70
2021/07/29 10:08:38;;;;;;;13.70;11.07;;;;;;;26.76;44.57;94959.25;4968433;28;20022;-69
2021/07/29 10:11:06;;;;;;;14.32;10.68;;;;;;;26.74;44.56;94956.28;4963792;28;20061;-69
2021/07/29 10:13:41;;;;;;;13.60;10.40;;;;;;;26.76;44.46;94953.78;4951573;28;20123;-69
2021/07/29 10:16:08;;;;;;;14.32;10.65;;;;;;;26.75;44.46;94946.81;4966602;28;20038;-69
2021/07/29 10:18:52;;;;;;;12.07;9.93;;;;;;;26.74;44.54;94946.09;4950388;28;20114;-69
2021/07/29 10:21:28;;;;;;;12.88;10.07;;;;;;;26.76;44.31;94953.78;4968411;28;20512;-69
2021/07/29 10:23:58;;;;;;;13.00;9.52;;;;;;;26.74;44.54;94950.81;4951965;28;20118;-69
2021/07/29 10:26:27;;;;;;;13.38;9.85;;;;;;;26.70;44.63;94951.16;4969275;28;20030;-69
2021/07/29 10:28:52;;;;;;;15.80;10.85;;;;;;;26.65;44.28;94938.31;4968308;28;20046;-69
2021/07/29 10:31:18;;;;;;;13.77;9.40;;;;;;;26.65;44.26;94943.03;4967943;28;20038;-69
2021/07/29 10:33:45;;;;;;;13.38;9.70;;;;;;;26.72;44.38;94939.66;4968487;28;20040;-69
2021/07/29 10:36:48;;;;;;;13.32;9.25;;;;;;;26.73;44.15;94932.91;4967080;28;20031;-69
2021/07/29 10:39:13;;;;;;;15.07;10.10;;;;;;;26.70;44.22;94934.72;4946013;29;20031;-69
2021/07/29 10:41:40;;;;;;;12.38;9.50;;;;;;;26.74;44.31;94939.84;4964696;28;20049;-69
2021/07/29 10:44:07;;;;;;;12.73;9.85;;;;;;;26.75;44.18;94930.38;4951628;28;20049;-69
2021/07/29 10:46:54;;;;;;;11.10;8.77;;;;;;;26.76;44.23;94926.38;4952153;28;20418;-69
2021/07/29 10:49:20;;;;;;;11.15;8.80;;;;;;;26.76;44.15;94927.09;4966862;28;20558;-69
2021/07/29 10:52:04;;;;;;;10.93;8.90;;;;;;;26.76;44.11;94931.84;4968673;28;20054;-69
2021/07/29 10:54:30;;;;;;;11.40;9.23;;;;;;;26.77;44.21;94923.81;4963127;28;20220;-69
2021/07/29 10:56:56;;;;;;;10.43;8.25;;;;;;;26.79;43.97;94921.28;4966911;28;20042;-70
2021/07/29 10:59:21;;;;;;;12.13;8.95;;;;;;;26.81;43.88;94918.72;4950349;28;20525;-70
2021/07/29 11:01:51;;;;;;;12.20;8.70;;;;;;;26.62;43.49;94889.31;4966101;28;20034;-69
2021/07/29 11:04:16;;;;;;;;;;;;;;;26.84;43.85;94914.94;4951428;28;20043;-69
2021/07/29 11:06:45;;;;;;;12.23;7.97;;;;;;;26.80;43.59;94914.53;4966829;28;19924;-70
2021/07/29 11:09:14;;;;;;;10.82;8.48;;;;;;;26.82;43.59;94914.00;4950613;28;20282;-69
2021/07/29 11:11:40;;;;;;;13.45;8.48;;;;;;;26.77;43.98;94910.13;4964122;28;20030;-70
2021/07/29 11:14:07;;;;;;;11.70;8.68;;;;;;;26.78;43.99;94908.13;4935532;28;20054;-69
2021/07/29 11:16:32;;;;;;;12.60;9.30;;;;;;;26.69;44.20;94899.63;4966287;28;20054;-71
2021/07/29 11:19:02;;;;;;;11.82;8.80;;;;;;;26.79;44.17;94899.34;4952275;28;20030;-69
2021/07/29 11:21:28;;;;;;;11.23;8.45;;;;;;;26.77;44.10;94901.91;4967539;28;20550;-70